Time;durP1;ratioP1;P1;durP2;ratioP2;P2;SDS_P1;SDS_P2;PMS_P1;PMS_P2;Temp;Humidity;BMP_temperature;BMP_pressure;BME280_temperature;BME280_humidity;BME280_pressure;Samples;Min_cycle;Max_cycle;Signal;HPM_P1;HPM_P2
2023/11/15 00:02:06;;;;;;;0.10;0.10;;;11.40;99.90;;;;;;5043769;28;20029;-75
2023/11/15 00:04:32;;;;;;;0.10;0.10;;;11.40;99.90;;;;;;5039853;28;20386;-75
2023/11/15 00:06:59;;;;;;;0.10;0.10;;;11.40;99.90;;;;;;5040714;28;20041;-74
2023/11/15 00:09:25;;;;;;;0.10;0.10;;;11.50;99.90;;;;;;5041563;28;20041;-74
2023/11/15 00:11:51;;;;;;;0.30;0.30;;;11.40;99.90;;;;;;5040434;28;20394;-74
2023/11/15 00:14:17;;;;;;;0.10;0.10;;;11.40;99.90;;;;;;5041553;28;20032;-74
2023/11/15 00:16:44;;;;;;;0.10;0.10;;;11.40;99.90;;;;;;5043633;28;20033;-74
2023/11/15 00:19:10;;;;;;;2.17;1.20;;;11.50;99.90;;;;;;5039751;28;20037;-75
2023/11/15 00:21:36;;;;;;;0.17;0.17;;;11.50;99.90;;;;;;5039597;28;20036;-74
2023/11/15 00:24:03;;;;;;;0.30;0.30;;;11.40;99.90;;;;;;5039849;28;20041;-74
2023/11/15 00:26:29;;;;;;;0.15;0.15;;;11.50;99.90;;;;;;5041030;28;20025;-74
2023/11/15 00:28:57;;;;;;;0.13;0.13;;;11.40;99.90;;;;;;5045420;28;20470;-74
2023/11/15 00:31:24;;;;;;;0.10;0.10;;;11.50;99.90;;;;;;5039611;28;20041;-77
2023/11/15 00:33:50;;;;;;;0.10;0.10;;;11.50;99.90;;;;;;5040567;28;20055;-74
2023/11/15 00:36:19;;;;;;;1.08;0.43;;;11.40;99.90;;;;;;5037648;28;20029;-74
2023/11/15 00:38:49;;;;;;;0.17;0.10;;;11.40;99.90;;;;;;5029384;28;20041;-74
2023/11/15 00:41:16;;;;;;;0.10;0.10;;;11.40;99.90;;;;;;5042698;28;20043;-74
2023/11/15 00:43:44;;;;;;;0.10;0.10;;;11.40;99.90;;;;;;5040349;28;20033;-74
2023/11/15 00:46:13;;;;;;;0.08;0.08;;;11.50;99.90;;;;;;5024611;28;20038;-73
2023/11/15 00:48:40;;;;;;;0.10;0.10;;;11.50;99.90;;;;;;5036678;28;20455;-74
2023/11/15 00:51:06;;;;;;;0.20;0.10;;;11.40;99.90;;;;;;5045466;28;20037;-74
2023/11/15 00:53:36;;;;;;;1.45;1.27;;;11.50;99.90;;;;;;5041569;28;20041;-74
2023/11/15 00:56:02;;;;;;;0.10;0.10;;;11.50;99.90;;;;;;5033498;28;20036;-74
2023/11/15 00:58:38;;;;;;;0.10;0.10;;;11.40;99.90;;;;;;5048826;28;20032;-75
2023/11/15 01:01:10;;;;;;;0.15;0.15;;;11.40;99.90;;;;;;5045388;28;20040;-74
2023/11/15 01:03:40;;;;;;;0.10;0.10;;;11.40;99.90;;;;;;5045137;28;20034;-74
2023/11/15 01:06:06;;;;;;;0.20;0.20;;;11.50;99.90;;;;;;5045615;28;20036;-74
2023/11/15 01:08:33;;;;;;;0.10;0.10;;;11.40;99.90;;;;;;5044535;28;20037;-74
2023/11/15 01:10:59;;;;;;;0.30;0.30;;;11.40;99.90;;;;;;5033263;28;20049;-74
2023/11/15 01:13:26;;;;;;;0.20;0.20;;;11.40;99.90;;;;;;5024772;28;20398;-75
2023/11/15 01:15:53;;;;;;;0.10;0.10;;;11.40;99.90;;;;;;5040519;28;20048;-74
2023/11/15 01:18:22;;;;;;;3.22;0.85;;;11.40;99.90;;;;;;5043014;28;20458;-73
2023/11/15 01:20:49;;;;;;;0.10;0.10;;;11.40;99.90;;;;;;5028221;28;20498;-74
2023/11/15 01:23:16;;;;;;;1.00;0.82;;;11.40;99.90;;;;;;5045490;28;20108;-74
2023/11/15 01:25:42;;;;;;;0.22;0.22;;;11.50;99.90;;;;;;5040583;28;20033;-73
2023/11/15 01:28:08;;;;;;;0.00;0.00;;;11.50;99.90;;;;;;5042817;28;20036;-74
2023/11/15 01:30:34;;;;;;;0.10;0.10;;;11.50;99.90;;;;;;5023507;28;20041;-73
2023/11/15 01:33:01;;;;;;;0.10;0.10;;;11.40;99.90;;;;;;5045691;28;20386;-74
2023/11/15 01:35:27;;;;;;;0.10;0.10;;;11.50;99.90;;;;;;5045902;28;20034;-75
2023/11/15 01:37:53;;;;;;;0.10;0.10;;;11.50;99.90;;;;;;5048406;28;20033;-74
2023/11/15 01:40:20;;;;;;;0.20;0.17;;;11.50;99.90;;;;;;5024125;28;20045;-73
2023/11/15 01:42:50;;;;;;;2.95;1.23;;;11.50;99.90;;;;;;5051023;28;20756;-75
2023/11/15 01:45:17;;;;;;;0.10;0.10;;;11.50;99.90;;;;;;5053812;28;20037;-75
2023/11/15 01:47:44;;;;;;;0.10;0.10;;;11.50;99.90;;;;;;5034925;28;20497;-74
2023/11/15 01:50:13;;;;;;;0.10;0.10;;;11.40;99.90;;;;;;5013688;28;20037;-75
2023/11/15 01:52:46;;;;;;;0.10;0.10;;;11.40;99.90;;;;;;5044429;28;20040;-74
2023/11/15 01:55:14;;;;;;;0.38;0.38;;;11.50;99.90;;;;;;5043362;28;20033;-74
2023/11/15 01:57:41;;;;;;;0.30;0.30;;;11.50;99.90;;;;;;5038749;28;20030;-73
2023/11/15 02:00:10;;;;;;;0.10;0.10;;;11.50;99.90;;;;;;5030060;28;20492;-74
2023/11/15 02:02:39;;;;;;;0.10;0.10;;;11.50;99.90;;;;;;5050382;28;20037;-74
2023/11/15 02:05:06;;;;;;;0.98;0.52;;;11.60;99.90;;;;;;5042869;28;20040;-74
2023/11/15 02:07:32;;;;;;;6.40;0.50;;;11.50;99.90;;;;;;5041074;28;20478;-74
2023/11/15 02:10:00;;;;;;;0.45;0.32;;;11.50;99.90;;;;;;5041910;28;20033;-74
2023/11/15 02:12:27;;;;;;;0.20;0.20;;;11.50;99.90;;;;;;5045641;28;20488;-76
2023/11/15 02:14:53;;;;;;;0.57;0.57;;;11.50;99.90;;;;;;5048420;28;20037;-74
2023/11/15 02:17:19;;;;;;;0.13;0.13;;;11.50;99.90;;;;;;5031479;28;20036;-74
2023/11/15 02:19:45;;;;;;;0.10;0.10;;;11.60;99.90;;;;;;5026878;28;20044;-74
2023/11/15 02:22:13;;;;;;;0.43;0.43;;;11.50;99.90;;;;;;5025496;28;20045;-74
2023/11/15 02:24:39;;;;;;;0.08;0.08;;;11.50;99.90;;;;;;5047967;28;20041;-75
2023/11/15 02:27:05;;;;;;;0.13;0.13;;;11.50;99.90;;;;;;5044878;28;20029;-74
2023/11/15 02:29:32;;;;;;;0.10;0.10;;;11.50;99.90;;;;;;5026977;28;20036;-74
2023/11/15 02:31:58;;;;;;;0.13;0.13;;;11.50;99.90;;;;;;5040798;28;20037;-75
2023/11/15 02:34:24;;;;;;;0.10;0.10;;;11.60;99.90;;;;;;5039509;28;20462;-76
2023/11/15 02:36:50;;;;;;;0.20;0.20;;;11.60;99.90;;;;;;5046475;28;20501;-75
2023/11/15 02:39:17;;;;;;;0.40;0.40;;;11.50;99.90;;;;;;5045564;28;20033;-74
2023/11/15 02:41:43;;;;;;;0.10;0.10;;;11.40;99.90;;;;;;5040552;28;20477;-74
2023/11/15 02:44:10;;;;;;;0.10;0.10;;;11.40;99.90;;;;;;5020939;28;20482;-74
2023/11/15 02:46:36;;;;;;;1.45;0.75;;;11.30;99.90;;;;;;5042279;28;20398;-74
2023/11/15 02:49:02;;;;;;;0.10;0.10;;;11.40;99.90;;;;;;5040368;28;20040;-74
2023/11/15 02:51:29;;;;;;;1.55;0.20;;;11.40;99.90;;;;;;5041958;28;20034;-76
2023/11/15 02:53:55;;;;;;;1.75;0.55;;;11.50;99.90;;;;;;5020111;28;20033;-75
2023/11/15 02:56:21;;;;;;;0.63;0.45;;;11.50;99.90;;;;;;5026328;28;20041;-75
2023/11/15 02:58:47;;;;;;;0.55;0.55;;;11.40;99.90;;;;;;5042938;28;20032;-74
2023/11/15 03:01:16;;;;;;;0.10;0.10;;;11.30;99.90;;;;;;5040731;28;20034;-74
2023/11/15 03:03:42;;;;;;;0.10;0.10;;;11.30;99.90;;;;;;5040940;28;20033;-74
2023/11/15 03:06:08;;;;;;;0.10;0.10;;;11.40;99.90;;;;;;5043703;28;20044;-74
2023/11/15 03:08:35;;;;;;;0.10;0.10;;;11.40;99.90;;;;;;5044368;28;20053;-74
2023/11/15 03:11:02;;;;;;;0.10;0.10;;;11.30;99.90;;;;;;5040220;28;20059;-75
2023/11/15 03:13:29;;;;;;;0.43;0.43;;;11.30;99.90;;;;;;5027309;28;20380;-76
2023/11/15 03:15:56;;;;;;;0.20;0.20;;;11.30;99.90;;;;;;5043780;28;20033;-75
2023/11/15 03:18:22;;;;;;;2.85;0.52;;;11.30;99.90;;;;;;5028408;28;20060;-75
2023/11/15 03:20:49;;;;;;;0.10;0.10;;;11.30;99.90;;;;;;5043949;28;20036;-75
2023/11/15 03:23:15;;;;;;;24.33;1.05;;;11.30;99.90;;;;;;5040147;28;20040;-74
2023/11/15 03:25:41;;;;;;;0.30;0.30;;;11.30;99.90;;;;;;5027071;28;20044;-74
2023/11/15 03:28:07;;;;;;;0.20;0.20;;;11.40;99.90;;;;;;5042879;28;20033;-74
2023/11/15 03:30:34;;;;;;;0.40;0.40;;;11.40;99.90;;;;;;5043715;28;20036;-75
2023/11/15 03:33:00;;;;;;;0.65;0.65;;;11.40;99.90;;;;;;5044562;28;20033;-75
2023/11/15 03:35:26;;;;;;;0.20;0.20;;;11.40;99.90;;;;;;5038151;28;20029;-75
2023/11/15 03:37:52;;;;;;;0.10;0.10;;;11.40;99.90;;;;;;5041378;28;20037;-75
2023/11/15 03:40:22;;;;;;;0.20;0.20;;;11.30;99.90;;;;;;5040565;28;20389;-75
2023/11/15 03:42:48;;;;;;;4.05;0.95;;;11.30;99.90;;;;;;5045085;28;20060;-75
2023/11/15 03:45:15;;;;;;;7.57;0.47;;;11.30;99.90;;;;;;5039968;28;20386;-75
2023/11/15 03:47:42;;;;;;;1.17;1.13;;;11.30;99.90;;;;;;5043690;28;20041;-75
2023/11/15 03:50:08;;;;;;;0.38;0.32;;;11.30;99.90;;;;;;5041640;28;20034;-75
2023/11/15 03:52:35;;;;;;;0.10;0.10;;;11.30;99.90;;;;;;5041627;28;20402;-74
2023/11/15 03:55:01;;;;;;;0.13;0.13;;;11.30;99.90;;;;;;5041370;28;20394;-75
2023/11/15 03:57:27;;;;;;;0.52;0.52;;;11.40;99.90;;;;;;5042989;28;20372;-76
2023/11/15 03:59:58;;;;;;;0.47;0.47;;;11.30;99.90;;;;;;5040498;28;20025;-75
2023/11/15 04:02:26;;;;;;;0.45;0.45;;;11.30;99.90;;;;;;5044882;28;20487;-75
2023/11/15 04:04:53;;;;;;;4.85;0.30;;;11.20;99.90;;;;;;5042039;28;20037;-75
2023/11/15 04:07:21;;;;;;;0.10;0.10;;;11.20;99.90;;;;;;5041473;28;20029;-74
2023/11/15 04:09:49;;;;;;;1.75;0.90;;;11.30;99.90;;;;;;5028028;28;20040;-74
2023/11/15 04:12:16;;;;;;;0.77;0.25;;;11.30;99.90;;;;;;5040199;28;20052;-75
2023/11/15 04:14:42;;;;;;;0.90;0.75;;;11.30;99.90;;;;;;5018199;28;20048;-75
2023/11/15 04:17:09;;;;;;;1.38;1.13;;;11.20;99.90;;;;;;5042306;28;20049;-75
2023/11/15 04:19:35;;;;;;;0.20;0.20;;;11.30;99.90;;;;;;5044611;28;20032;-76
2023/11/15 04:22:01;;;;;;;0.30;0.30;;;11.20;99.90;;;;;;5050434;28;20045;-74
2023/11/15 04:24:28;;;;;;;0.10;0.10;;;11.30;99.90;;;;;;5031099;28;20045;-74
2023/11/15 04:26:54;;;;;;;0.22;0.17;;;11.30;99.90;;;;;;5037588;28;20045;-74
2023/11/15 04:29:21;;;;;;;0.20;0.20;;;11.30;99.90;;;;;;5041111;28;20057;-74
2023/11/15 04:31:48;;;;;;;0.25;0.25;;;11.20;99.90;;;;;;5040077;28;20044;-75
2023/11/15 04:34:15;;;;;;;0.30;0.30;;;11.20;99.90;;;;;;5040619;28;20475;-74
2023/11/15 04:36:41;;;;;;;0.65;0.65;;;11.20;99.90;;;;;;5044781;28;20029;-75
2023/11/15 04:39:08;;;;;;;1.00;0.73;;;11.20;99.90;;;;;;5040075;28;20036;-75
2023/11/15 04:41:34;;;;;;;0.30;0.30;;;11.10;99.90;;;;;;5039968;28;20036;-74
2023/11/15 04:44:02;;;;;;;0.30;0.30;;;11.00;99.90;;;;;;5026935;28;20041;-74
2023/11/15 04:46:28;;;;;;;0.10;0.10;;;11.10;99.90;;;;;;5029156;28;20045;-74
2023/11/15 04:48:54;;;;;;;0.38;0.30;;;11.00;99.90;;;;;;5040745;28;20045;-74
2023/11/15 04:51:21;;;;;;;0.10;0.10;;;11.10;99.90;;;;;;5042085;28;20516;-74
2023/11/15 04:53:47;;;;;;;0.10;0.10;;;11.00;99.90;;;;;;5039141;28;20033;-74
2023/11/15 04:56:13;;;;;;;0.45;0.45;;;11.10;99.90;;;;;;5042097;28;20474;-73
2023/11/15 04:58:40;;;;;;;1.85;1.75;;;11.00;99.90;;;;;;5039678;28;20059;-74
2023/11/15 05:01:06;;;;;;;1.63;0.60;;;11.00;99.90;;;;;;5039336;28;20029;-73
2023/11/15 05:03:32;;;;;;;2.05;0.40;;;11.00;99.90;;;;;;5041384;28;20037;-74
2023/11/15 05:05:59;;;;;;;0.20;0.20;;;11.00;99.90;;;;;;5026286;28;20038;-74
2023/11/15 05:08:25;;;;;;;0.47;0.43;;;11.00;99.90;;;;;;5043197;28;20040;-75
2023/11/15 05:10:51;;;;;;;0.52;0.47;;;11.00;99.90;;;;;;5037331;28;20632;-73
2023/11/15 05:13:17;;;;;;;0.73;0.73;;;11.10;99.90;;;;;;5039135;28;20502;-74
2023/11/15 05:15:44;;;;;;;0.17;0.17;;;11.00;99.90;;;;;;5040079;28;20033;-74
2023/11/15 05:18:10;;;;;;;1.42;1.30;;;10.90;99.90;;;;;;5044122;28;20033;-74
2023/11/15 05:20:36;;;;;;;0.85;0.73;;;10.90;99.90;;;;;;5023845;28;20029;-74
2023/11/15 05:23:02;;;;;;;0.20;0.20;;;10.80;99.90;;;;;;5025121;28;20029;-73
2023/11/15 05:25:30;;;;;;;1.17;0.82;;;10.80;99.90;;;;;;5038264;28;20036;-73
2023/11/15 05:27:56;;;;;;;0.30;0.30;;;10.80;99.90;;;;;;5027437;28;20366;-74
2023/11/15 05:30:22;;;;;;;0.28;0.28;;;10.80;99.90;;;;;;5043292;28;20041;-73
2023/11/15 05:32:48;;;;;;;0.10;0.10;;;10.80;99.90;;;;;;5036913;28;20389;-74
2023/11/15 05:35:15;;;;;;;0.10;0.10;;;10.80;99.90;;;;;;5039533;28;20044;-74
2023/11/15 05:37:41;;;;;;;0.15;0.15;;;10.70;99.90;;;;;;5044209;28;20026;-75
2023/11/15 05:40:07;;;;;;;0.13;0.10;;;10.70;99.90;;;;;;5048212;28;20029;-74
2023/11/15 05:42:34;;;;;;;1.95;0.40;;;10.50;99.90;;;;;;5046590;28;20034;-76
2023/11/15 05:45:00;;;;;;;0.20;0.20;;;10.40;99.90;;;;;;5039546;28;20033;-74
2023/11/15 05:47:27;;;;;;;0.08;0.08;;;10.40;99.90;;;;;;5041215;28;20044;-74
2023/11/15 05:49:54;;;;;;;0.20;0.20;;;10.40;99.90;;;;;;5044865;28;20033;-74
2023/11/15 05:52:20;;;;;;;0.10;0.10;;;10.40;99.90;;;;;;5047891;28;20599;-74
2023/11/15 05:54:47;;;;;;;0.13;0.13;;;10.50;99.90;;;;;;5023493;28;20068;-74
2023/11/15 05:57:14;;;;;;;0.73;0.73;;;10.50;99.90;;;;;;5045583;28;20497;-73
2023/11/15 05:59:40;;;;;;;0.20;0.20;;;10.50;99.90;;;;;;5044598;28;20458;-74
2023/11/15 06:02:06;;;;;;;0.10;0.10;;;10.50;99.90;;;;;;5042636;28;20040;-73
2023/11/15 06:04:33;;;;;;;0.22;0.22;;;10.60;99.90;;;;;;5040749;28;20032;-74
2023/11/15 06:07:00;;;;;;;0.30;0.30;;;10.60;99.90;;;;;;5043471;28;20033;-73
2023/11/15 06:09:27;;;;;;;3.25;1.80;;;10.60;99.90;;;;;;5049244;28;20037;-72
2023/11/15 06:11:54;;;;;;;0.73;0.68;;;10.60;99.90;;;;;;5048150;28;20115;-73
2023/11/15 06:14:20;;;;;;;0.85;0.65;;;10.60;99.90;;;;;;5041201;28;20053;-74
2023/11/15 06:16:46;;;;;;;1.38;0.45;;;10.60;99.90;;;;;;5040320;28;20037;-73
2023/11/15 06:19:12;;;;;;;0.10;0.10;;;10.60;99.90;;;;;;5042259;28;20037;-73
2023/11/15 06:21:43;;;;;;;0.10;0.10;;;10.60;99.90;;;;;;5042836;28;20459;-72
2023/11/15 06:24:10;;;;;;;0.35;0.25;;;10.60;99.90;;;;;;5042670;28;20917;-74
2023/11/15 06:26:37;;;;;;;1.10;0.85;;;10.60;99.90;;;;;;5040504;28;20037;-75
2023/11/15 06:29:05;;;;;;;2.53;0.57;;;10.60;99.90;;;;;;5045421;28;20033;-75
2023/11/15 06:31:37;;;;;;;0.38;0.32;;;10.70;99.90;;;;;;5041680;28;20032;-75
2023/11/15 06:34:08;;;;;;;0.10;0.10;;;10.70;99.90;;;;;;5046149;28;20037;-74
2023/11/15 06:36:39;;;;;;;;;;;10.70;99.90;;;;;;5032890;28;20363;-76
2023/11/15 06:39:05;;;;;;;0.10;0.10;;;10.70;99.90;;;;;;5042494;28;20287;-74
2023/11/15 06:41:38;;;;;;;1.38;0.60;;;10.60;99.90;;;;;;5043860;28;20272;-74
2023/11/15 06:44:08;;;;;;;0.63;0.30;;;10.60;99.90;;;;;;5043300;28;20041;-74
2023/11/15 06:46:38;;;;;;;0.20;0.17;;;10.60;99.90;;;;;;5044107;28;20042;-75
2023/11/15 06:49:15;;;;;;;4.30;0.97;;;10.60;99.90;;;;;;5042540;28;20041;-75
2023/11/15 06:51:49;;;;;;;0.40;0.35;;;10.70;99.90;;;;;;5039056;28;20069;-75
2023/11/15 06:54:18;;;;;;;0.90;0.90;;;10.70;99.90;;;;;;5040565;28;20037;-76
2023/11/15 06:56:48;;;;;;;7.07;0.60;;;10.70;99.90;;;;;;5045213;28;20041;-75
2023/11/15 06:59:15;;;;;;;2.20;1.58;;;10.70;99.90;;;;;;5044218;28;20041;-76
2023/11/15 07:01:41;;;;;;;0.40;0.40;;;10.70;99.90;;;;;;5045605;28;20025;-76
2023/11/15 07:04:07;;;;;;;1.17;0.73;;;10.70;99.90;;;;;;5043150;28;20037;-76
2023/11/15 07:06:33;;;;;;;0.10;0.10;;;10.70;99.90;;;;;;5037191;28;20487;-74
2023/11/15 07:09:00;;;;;;;0.08;0.08;;;10.70;99.90;;;;;;5030521;28;20132;-75
2023/11/15 07:11:26;;;;;;;0.10;0.10;;;10.70;99.90;;;;;;5047322;28;20060;-75
2023/11/15 07:13:55;;;;;;;0.32;0.25;;;10.80;99.90;;;;;;5046298;28;20025;-75
2023/11/15 07:16:21;;;;;;;0.10;0.10;;;10.80;99.90;;;;;;5048150;28;20394;-75
2023/11/15 07:18:48;;;;;;;0.10;0.10;;;10.80;99.90;;;;;;5040161;28;20025;-75
2023/11/15 07:21:14;;;;;;;2.40;1.60;;;10.80;99.90;;;;;;5043129;28;20041;-75
2023/11/15 07:23:42;;;;;;;0.10;0.10;;;10.80;99.90;;;;;;5042054;28;20060;-77
2023/11/15 07:26:10;;;;;;;0.20;0.20;;;10.80;99.90;;;;;;5045124;28;20465;-75
2023/11/15 07:28:41;;;;;;;2.38;0.55;;;10.80;99.90;;;;;;5045827;28;20025;-75
2023/11/15 07:31:11;;;;;;;0.30;0.20;;;10.80;99.90;;;;;;5039719;28;20389;-77
2023/11/15 07:33:37;;;;;;;0.47;0.35;;;10.90;99.90;;;;;;5041601;28;20037;-75
2023/11/15 07:36:03;;;;;;;0.43;0.22;;;10.90;99.90;;;;;;5039679;28;20036;-75
2023/11/15 07:38:30;;;;;;;0.30;0.30;;;10.90;99.90;;;;;;5033339;28;20040;-75
2023/11/15 07:40:57;;;;;;;0.52;0.52;;;11.00;99.90;;;;;;5040803;28;20045;-75
2023/11/15 07:43:23;;;;;;;7.28;0.95;;;11.00;99.90;;;;;;5041609;28;20385;-75
2023/11/15 07:45:53;;;;;;;2.22;0.85;;;11.00;99.90;;;;;;5041631;28;20041;-75
2023/11/15 07:48:20;;;;;;;0.10;0.10;;;11.00;99.90;;;;;;5042087;28;20479;-75
2023/11/15 07:50:46;;;;;;;0.20;0.20;;;11.10;99.90;;;;;;5042567;28;20045;-76
2023/11/15 07:53:13;;;;;;;0.40;0.32;;;11.10;99.90;;;;;;5041263;28;20033;-75
2023/11/15 07:55:39;;;;;;;0.20;0.20;;;11.10;99.90;;;;;;5046142;28;20036;-77
2023/11/15 07:58:06;;;;;;;0.13;0.13;;;11.10;99.90;;;;;;5046332;28;20030;-75
2023/11/15 08:00:35;;;;;;;3.17;1.55;;;11.10;99.90;;;;;;5048387;28;20045;-75
2023/11/15 08:03:04;;;;;;;0.43;0.35;;;11.20;99.90;;;;;;5046479;28;20024;-75
2023/11/15 08:05:30;;;;;;;0.25;0.25;;;11.20;99.90;;;;;;5047181;28;20029;-75
2023/11/15 08:07:57;;;;;;;0.40;0.40;;;11.20;99.90;;;;;;5046060;28;20041;-75
2023/11/15 08:10:23;;;;;;;0.38;0.38;;;11.20;99.90;;;;;;5044055;28;20045;-75
2023/11/15 08:12:50;;;;;;;0.30;0.25;;;11.20;99.90;;;;;;5040088;28;20422;-77
2023/11/15 08:15:16;;;;;;;2.35;0.60;;;11.20;99.90;;;;;;5023761;28;20041;-77
2023/11/15 08:17:46;;;;;;;0.20;0.20;;;11.10;99.90;;;;;;4998360;28;20032;-77
2023/11/15 08:20:16;;;;;;;0.50;0.45;;;11.10;99.90;;;;;;5012727;28;20048;-76
2023/11/15 08:22:43;;;;;;;1.27;0.35;;;11.20;99.90;;;;;;5038064;28;20045;-77
2023/11/15 08:25:10;;;;;;;0.10;0.10;;;11.20;99.90;;;;;;5011903;28;20047;-76
2023/11/15 08:27:38;;;;;;;0.70;0.70;;;11.20;99.90;;;;;;5012509;28;20040;-76
2023/11/15 08:30:14;;;;;;;1.77;0.98;;;11.20;99.90;;;;;;5026887;28;20039;-76
2023/11/15 08:32:47;;;;;;;0.52;0.22;;;11.30;99.90;;;;;;5013354;28;20052;-78
2023/11/15 08:35:17;;;;;;;1.83;0.45;;;11.30;99.90;;;;;;5026319;28;20044;-78
2023/11/15 08:37:43;;;;;;;0.98;0.90;;;11.40;99.90;;;;;;5027839;28;20049;-78
2023/11/15 08:40:11;;;;;;;0.85;0.45;;;11.50;99.90;;;;;;5039956;28;20038;-79
2023/11/15 08:42:40;;;;;;;0.40;0.40;;;11.70;99.90;;;;;;5019666;28;20052;-78
2023/11/15 08:45:08;;;;;;;1.55;1.30;;;11.90;99.90;;;;;;5023907;28;20050;-80
2023/11/15 08:47:39;;;;;;;0.17;0.17;;;12.10;99.90;;;;;;5029928;28;20041;-78
2023/11/15 08:50:08;;;;;;;6.30;1.63;;;12.40;91.70;;;;;;5020621;28;20425;-79
2023/11/15 08:52:35;;;;;;;0.20;0.20;;;12.40;86.80;;;;;;5025597;28;20041;-78
2023/11/15 08:55:02;;;;;;;0.05;0.03;;;12.30;89.10;;;;;;5022770;28;20038;-78
2023/11/15 08:57:30;;;;;;;3.63;0.55;;;12.40;85.90;;;;;;5028429;28;20101;-79
2023/11/15 08:59:57;;;;;;;2.30;0.50;;;12.50;65.80;;;;;;5008318;28;20141;-77
2023/11/15 09:02:24;;;;;;;0.32;0.32;;;12.40;58.50;;;;;;5043700;28;20041;-79
2023/11/15 09:04:50;;;;;;;0.10;0.10;;;12.30;62.30;;;;;;5024352;28;20054;-79
2023/11/15 09:07:19;;;;;;;0.10;0.10;;;12.20;81.70;;;;;;5011653;28;20056;-79
2023/11/15 09:09:46;;;;;;;1.35;0.68;;;12.20;80.30;;;;;;5044289;28;20045;-78
2023/11/15 09:12:15;;;;;;;1.00;0.20;;;12.30;82.40;;;;;;5028354;28;20072;-79
2023/11/15 09:14:42;;;;;;;0.20;0.20;;;12.40;63.80;;;;;;5023299;28;20495;-78
2023/11/15 09:17:16;;;;;;;0.82;0.47;;;12.40;55.70;;;;;;5031638;28;20084;-78
2023/11/15 09:19:46;;;;;;;0.15;0.15;;;12.50;67.90;;;;;;5030239;28;20141;-78
2023/11/15 09:22:15;;;;;;;0.30;0.30;;;12.50;56.40;;;;;;5030096;28;20399;-76
2023/11/15 09:24:41;;;;;;;1.48;1.33;;;12.60;50.70;;;;;;5023521;28;20033;-77
2023/11/15 09:27:08;;;;;;;0.10;0.10;;;12.70;33.60;;;;;;5045446;28;20406;-77
2023/11/15 09:29:34;;;;;;;0.43;0.30;;;12.80;42.30;;;;;;5020028;28;20037;-76
2023/11/15 09:32:01;;;;;;;0.40;0.40;;;12.90;11.30;;;;;;5045980;28;20367;-77
2023/11/15 09:34:28;;;;;;;0.20;0.20;;;12.90;11.00;;;;;;5032972;28;20045;-76
2023/11/15 09:36:54;;;;;;;0.08;0.08;;;12.70;21.00;;;;;;5041683;28;20033;-77
2023/11/15 09:39:20;;;;;;;0.10;0.10;;;12.60;24.20;;;;;;5043641;28;20046;-78
2023/11/15 09:41:53;;;;;;;0.17;0.17;;;12.60;45.10;;;;;;5028255;28;20033;-76
2023/11/15 09:44:24;;;;;;;0.20;0.20;;;12.50;42.80;;;;;;5041433;28;20029;-77
2023/11/15 09:46:54;;;;;;;0.08;0.08;;;12.70;42.80;;;;;;5045648;28;20471;-76
2023/11/15 09:49:21;;;;;;;0.60;0.57;;;12.90;27.60;;;;;;5042800;28;20029;-76
2023/11/15 09:51:48;;;;;;;0.20;0.20;;;13.00;4.40;;;;;;5044360;28;20037;-77
2023/11/15 09:54:15;;;;;;;0.15;0.15;;;13.00;14.20;;;;;;5044026;28;20458;-76
2023/11/15 09:56:45;;;;;;;0.08;0.08;;;12.90;19.50;;;;;;5044620;28;20044;-76
2023/11/15 09:59:11;;;;;;;0.25;0.25;;;12.90;33.40;;;;;;5045080;28;20489;-76
2023/11/15 10:01:57;;;;;;;0.20;0.20;;;13.00;9.70;;;;;;5041826;28;20033;-76
2023/11/15 10:04:25;;;;;;;0.20;0.20;;;12.90;7.20;;;;;;5047236;28;20052;-77
2023/11/15 10:06:51;;;;;;;2.47;0.57;;;13.00;5.50;;;;;;5031610;28;20048;-77
2023/11/15 10:09:35;;;;;;;0.10;0.10;;;13.20;1.00;;;;;;5045421;28;20036;-76
2023/11/15 10:12:03;;;;;;;1.88;0.45;;;13.30;1.00;;;;;;5040946;28;20049;-77
2023/11/15 10:14:30;;;;;;;0.10;0.10;;;13.40;1.00;;;;;;5045464;28;20359;-77
2023/11/15 10:16:56;;;;;;;0.00;0.00;;;13.40;1.00;;;;;;5032473;28;20055;-77
2023/11/15 10:19:27;;;;;;;1.00;0.50;;;13.30;1.00;;;;;;5046334;28;20036;-78
2023/11/15 10:22:04;;;;;;;0.75;0.25;;;13.40;1.00;;;;;;5041035;28;20036;-77
2023/11/15 10:24:32;;;;;;;0.65;0.20;;;13.30;1.00;;;;;;5037436;28;20037;-76
2023/11/15 10:27:06;;;;;;;0.25;0.17;;;13.30;1.00;;;;;;5032349;28;20497;-76
2023/11/15 10:29:32;;;;;;;0.10;0.10;;;13.20;1.00;;;;;;5044586;28;20037;-76
2023/11/15 10:32:00;;;;;;;0.03;0.03;;;13.10;1.00;;;;;;5043486;28;20029;-76
2023/11/15 10:34:31;;;;;;;0.10;0.10;;;13.00;1.00;;;;;;5027209;28;20049;-76
2023/11/15 10:37:10;;;;;;;0.80;0.17;;;12.90;1.00;;;;;;5030983;28;20041;-75
2023/11/15 10:39:43;;;;;;;0.10;0.10;;;12.80;1.00;;;;;;5029347;28;20040;-76
2023/11/15 10:42:12;;;;;;;0.68;0.68;;;12.70;1.00;;;;;;5031493;28;20066;-77
2023/11/15 10:44:40;;;;;;;0.47;0.32;;;12.70;1.00;;;;;;5026385;28;20065;-79
2023/11/15 10:47:12;;;;;;;0.10;0.10;;;12.70;1.00;;;;;;5045201;28;20526;-77
2023/11/15 10:49:43;;;;;;;0.10;0.10;;;12.60;1.00;;;;;;5038120;28;20475;-77
2023/11/15 10:52:11;;;;;;;0.20;0.20;;;12.60;1.00;;;;;;5025317;28;20037;-77
2023/11/15 10:54:38;;;;;;;0.13;0.13;;;12.70;1.00;;;;;;5040792;28;20036;-77
2023/11/15 10:57:07;;;;;;;0.10;0.10;;;12.70;1.00;;;;;;5044181;28;20238;-78
2023/11/15 10:59:36;;;;;;;0.10;0.10;;;12.60;1.00;;;;;;5045777;28;20037;-77
2023/11/15 11:02:06;;;;;;;0.10;0.10;;;12.70;6.10;;;;;;5042520;28;20390;-79
2023/11/15 11:04:38;;;;;;;0.30;0.30;;;12.50;33.90;;;;;;5040468;28;20458;-79
2023/11/15 11:07:23;;;;;;;0.10;0.10;;;12.40;33.50;;;;;;5034782;28;20037;-77
2023/11/15 11:09:59;;;;;;;0.10;0.10;;;12.30;33.40;;;;;;5021348;28;20042;-78
2023/11/15 11:12:26;;;;;;;0.68;0.47;;;12.40;57.70;;;;;;5028576;28;20057;-77
2023/11/15 11:15:16;;;;;;;0.13;0.10;;;12.50;37.30;;;;;;5041222;28;20033;-78
2023/11/15 11:17:47;;;;;;;0.50;0.40;;;12.50;1.00;;;;;;5031449;28;20521;-78
2023/11/15 11:20:25;;;;;;;0.20;0.20;;;12.50;10.20;;;;;;5032186;28;20052;-76
2023/11/15 11:23:22;;;;;;;0.10;0.10;;;12.40;10.90;;;;;;5031575;28;20048;-76
2023/11/15 11:25:51;;;;;;;0.10;0.10;;;12.40;26.10;;;;;;5037228;28;20040;-77
2023/11/15 11:28:20;;;;;;;0.63;0.63;;;12.20;99.90;;;;;;5041028;28;20032;-76
2023/11/15 11:31:19;;;;;;;0.10;0.10;;;12.00;99.90;;;;;;5041418;28;20034;-76
2023/11/15 11:34:04;;;;;;;0.10;0.10;;;11.50;99.90;;;;;;5047135;28;20445;-76
2023/11/15 11:36:49;;;;;;;0.20;0.20;;;10.80;1.00;;;;;;5039115;28;20040;-72
2023/11/15 11:39:43;;;;;;;1.95;0.82;;;10.30;1.00;;;;;;5041265;28;20038;-72
2023/11/15 11:42:28;;;;;;;0.10;0.10;;;10.10;99.90;;;;;;5044860;28;20052;-74
2023/11/15 11:44:57;;;;;;;0.10;0.10;;;9.90;99.90;;;;;;5049962;28;20040;-74
2023/11/15 11:47:24;;;;;;;0.32;0.32;;;9.80;99.90;;;;;;5047336;28;20040;-73
2023/11/15 11:49:51;;;;;;;0.10;0.10;;;9.80;99.90;;;;;;5048547;28;20025;-74
2023/11/15 11:52:18;;;;;;;0.20;0.20;;;9.80;99.90;;;;;;5049638;28;20029;-72
2023/11/15 11:54:52;;;;;;;0.10;0.10;;;9.80;99.90;;;;;;5047149;28;20382;-73
2023/11/15 11:57:24;;;;;;;0.17;0.13;;;9.60;99.90;;;;;;5044638;28;20554;-73
2023/11/15 11:59:58;;;;;;;0.10;0.10;;;9.60;99.90;;;;;;5030392;28;20033;-74
2023/11/15 12:02:36;;;;;;;0.10;0.10;;;9.60;99.90;;;;;;5038102;28;20048;-72
2023/11/15 12:05:03;;;;;;;0.10;0.10;;;9.70;99.90;;;;;;5043220;28;20037;-73
2023/11/15 12:07:29;;;;;;;1.48;0.20;;;9.90;99.90;;;;;;5044225;28;20029;-73
2023/11/15 12:10:05;;;;;;;0.30;0.30;;;10.10;99.90;;;;;;5030736;28;20470;-75
2023/11/15 12:12:32;;;;;;;0.10;0.10;;;10.20;99.90;;;;;;5042719;28;20852;-74
2023/11/15 12:15:02;;;;;;;0.17;0.17;;;10.20;99.90;;;;;;5056042;28;20042;-76
2023/11/15 12:17:40;;;;;;;0.10;0.10;;;10.20;99.90;;;;;;5041705;28;20406;-75
2023/11/15 12:20:11;;;;;;;0.70;0.17;;;10.20;99.90;;;;;;5039866;28;20044;-74
2023/11/15 12:22:40;;;;;;;0.10;0.10;;;10.20;99.90;;;;;;5023552;28;20037;-74
2023/11/15 12:25:16;;;;;;;0.15;0.15;;;10.10;99.90;;;;;;5043588;28;20470;-73
2023/11/15 12:27:45;;;;;;;0.90;0.52;;;10.10;99.90;;;;;;5045520;28;20065;-74
2023/11/15 12:30:12;;;;;;;3.50;0.63;;;10.10;99.90;;;;;;5040978;28;20474;-74
2023/11/15 12:32:43;;;;;;;0.35;0.35;;;10.20;99.90;;;;;;5040215;28;20037;-74
2023/11/15 12:35:09;;;;;;;;;;;10.20;99.90;;;;;;5039097;28;20044;-74
2023/11/15 12:37:36;;;;;;;0.10;0.10;;;10.10;99.90;;;;;;5041493;28;20339;-74
2023/11/15 12:40:22;;;;;;;0.95;0.60;;;10.10;99.90;;;;;;5044035;28;20048;-74
2023/11/15 12:42:50;;;;;;;1.77;0.35;;;10.10;99.90;;;;;;5041622;28;20466;-74
2023/11/15 12:45:34;;;;;;;0.10;0.10;;;10.10;99.90;;;;;;5037533;28;20040;-74
2023/11/15 12:48:02;;;;;;;0.10;0.10;;;10.10;99.90;;;;;;5030778;28;20386;-76
2023/11/15 12:50:29;;;;;;;1.27;1.17;;;10.10;99.90;;;;;;5040649;28;20379;-75
2023/11/15 12:53:13;;;;;;;0.50;0.50;;;10.10;99.90;;;;;;5038816;28;20041;-74
2023/11/15 12:55:53;;;;;;;0.20;0.20;;;10.10;99.90;;;;;;5041717;28;20044;-75